sensor_id;sensor_type;location;lat;lon;timestamp;P1;durP1;ratioP1;P2;durP2;ratioP2
66653;SDS011;53557;52.164;5.604;2023-02-28T00:01:09;3.05;;;1.30;;
66653;SDS011;53557;52.164;5.604;2023-02-28T00:03:34;3.28;;;1.20;;
66653;SDS011;53557;52.164;5.604;2023-02-28T00:06:01;2.92;;;1.10;;
66653;SDS011;53557;52.164;5.604;2023-02-28T00:08:27;2.53;;;1.10;;
66653;SDS011;53557;52.164;5.604;2023-02-28T00:10:53;2.15;;;1.05;;
66653;SDS011;53557;52.164;5.604;2023-02-28T00:13:18;2.53;;;1.10;;
66653;SDS011;53557;52.164;5.604;2023-02-28T00:15:44;2.33;;;0.93;;
66653;SDS011;53557;52.164;5.604;2023-02-28T00:18:10;3.05;;;1.10;;
66653;SDS011;53557;52.164;5.604;2023-02-28T00:20:36;2.28;;;1.10;;
66653;SDS011;53557;52.164;5.604;2023-02-28T00:23:02;2.85;;;1.20;;
66653;SDS011;53557;52.164;5.604;2023-02-28T00:25:27;2.58;;;1.10;;
66653;SDS011;53557;52.164;5.604;2023-02-28T00:27:53;2.75;;;1.10;;
66653;SDS011;53557;52.164;5.604;2023-02-28T00:30:19;2.83;;;1.10;;
66653;SDS011;53557;52.164;5.604;2023-02-28T00:32:46;3.50;;;1.30;;
66653;SDS011;53557;52.164;5.604;2023-02-28T00:35:11;2.65;;;1.15;;
66653;SDS011;53557;52.164;5.604;2023-02-28T00:37:37;2.50;;;1.10;;
66653;SDS011;53557;52.164;5.604;2023-02-28T00:40:03;3.03;;;1.27;;
66653;SDS011;53557;52.164;5.604;2023-02-28T00:42:35;2.33;;;0.98;;
66653;SDS011;53557;52.164;5.604;2023-02-28T00:45:01;3.13;;;1.20;;
66653;SDS011;53557;52.164;5.604;2023-02-28T00:47:26;3.35;;;1.20;;
66653;SDS011;53557;52.164;5.604;2023-02-28T00:49:51;2.42;;;1.00;;
66653;SDS011;53557;52.164;5.604;2023-02-28T00:52:17;2.88;;;1.10;;
66653;SDS011;53557;52.164;5.604;2023-02-28T00:54:42;2.72;;;1.10;;
66653;SDS011;53557;52.164;5.604;2023-02-28T00:57:08;2.72;;;1.00;;
66653;SDS011;53557;52.164;5.604;2023-02-28T00:59:33;2.45;;;1.05;;
66653;SDS011;53557;52.164;5.604;2023-02-28T01:01:58;2.50;;;1.10;;
66653;SDS011;53557;52.164;5.604;2023-02-28T01:04:24;2.85;;;1.10;;
66653;SDS011;53557;52.164;5.604;2023-02-28T01:06:49;2.75;;;1.10;;
66653;SDS011;53557;52.164;5.604;2023-02-28T01:09:14;2.85;;;1.20;;
66653;SDS011;53557;52.164;5.604;2023-02-28T01:11:40;2.88;;;1.10;;
66653;SDS011;53557;52.164;5.604;2023-02-28T01:14:09;2.38;;;1.05;;
66653;SDS011;53557;52.164;5.604;2023-02-28T01:16:41;2.17;;;1.00;;
66653;SDS011;53557;52.164;5.604;2023-02-28T01:19:06;3.05;;;1.17;;
66653;SDS011;53557;52.164;5.604;2023-02-28T01:21:32;2.15;;;0.98;;
66653;SDS011;53557;52.164;5.604;2023-02-28T01:23:57;1.77;;;0.80;;
66653;SDS011;53557;52.164;5.604;2023-02-28T01:26:23;2.85;;;1.10;;
66653;SDS011;53557;52.164;5.604;2023-02-28T01:28:49;2.22;;;1.00;;
66653;SDS011;53557;52.164;5.604;2023-02-28T01:31:15;2.80;;;1.20;;
66653;SDS011;53557;52.164;5.604;2023-02-28T01:33:41;2.83;;;1.00;;
66653;SDS011;53557;52.164;5.604;2023-02-28T01:36:11;2.95;;;1.27;;
66653;SDS011;53557;52.164;5.604;2023-02-28T01:38:37;2.42;;;0.95;;
66653;SDS011;53557;52.164;5.604;2023-02-28T01:41:03;2.78;;;1.17;;
66653;SDS011;53557;52.164;5.604;2023-02-28T01:43:30;2.55;;;1.08;;
66653;SDS011;53557;52.164;5.604;2023-02-28T01:45:57;2.10;;;0.90;;
66653;SDS011;53557;52.164;5.604;2023-02-28T01:48:33;3.08;;;1.02;;
66653;SDS011;53557;52.164;5.604;2023-02-28T01:51:02;3.60;;;1.10;;
66653;SDS011;53557;52.164;5.604;2023-02-28T01:53:35;3.10;;;0.98;;
66653;SDS011;53557;52.164;5.604;2023-02-28T01:56:07;2.53;;;1.00;;
66653;SDS011;53557;52.164;5.604;2023-02-28T01:58:35;2.83;;;1.20;;
66653;SDS011;53557;52.164;5.604;2023-02-28T02:01:02;2.75;;;1.00;;
66653;SDS011;53557;52.164;5.604;2023-02-28T02:03:28;2.17;;;1.00;;
66653;SDS011;53557;52.164;5.604;2023-02-28T02:05:54;2.58;;;1.10;;
66653;SDS011;53557;52.164;5.604;2023-02-28T02:08:21;2.63;;;1.20;;
66653;SDS011;53557;52.164;5.604;2023-02-28T02:10:49;2.00;;;0.95;;
66653;SDS011;53557;52.164;5.604;2023-02-28T02:18:33;2.45;;;0.90;;
66653;SDS011;53557;52.164;5.604;2023-02-28T02:32:28;2.55;;;1.00;;
66653;SDS011;53557;52.164;5.604;2023-02-28T02:35:13;2.95;;;0.93;;
66653;SDS011;53557;52.164;5.604;2023-02-28T02:40:57;2.88;;;1.02;;
66653;SDS011;53557;52.164;5.604;2023-02-28T02:43:25;2.10;;;0.95;;
66653;SDS011;53557;52.164;5.604;2023-02-28T02:48:25;1.92;;;0.95;;
66653;SDS011;53557;52.164;5.604;2023-02-28T02:50:56;2.97;;;1.15;;
66653;SDS011;53557;52.164;5.604;2023-02-28T02:53:37;2.25;;;1.10;;
66653;SDS011;53557;52.164;5.604;2023-02-28T02:56:06;2.35;;;1.10;;
66653;SDS011;53557;52.164;5.604;2023-02-28T02:58:33;2.33;;;1.00;;
66653;SDS011;53557;52.164;5.604;2023-02-28T03:01:07;2.53;;;1.00;;
66653;SDS011;53557;52.164;5.604;2023-02-28T03:03:34;2.10;;;0.90;;
66653;SDS011;53557;52.164;5.604;2023-02-28T03:06:00;2.58;;;0.95;;
66653;SDS011;53557;52.164;5.604;2023-02-28T03:08:27;1.95;;;0.85;;
66653;SDS011;53557;52.164;5.604;2023-02-28T03:11:00;2.35;;;0.88;;
66653;SDS011;53557;52.164;5.604;2023-02-28T03:16:49;2.50;;;1.10;;
66653;SDS011;53557;52.164;5.604;2023-02-28T03:21:36;2.33;;;0.98;;
66653;SDS011;53557;52.164;5.604;2023-02-28T03:26:31;3.05;;;1.10;;
66653;SDS011;53557;52.164;5.604;2023-02-28T03:29:03;1.67;;;0.80;;
66653;SDS011;53557;52.164;5.604;2023-02-28T03:36:35;2.90;;;0.80;;
66653;SDS011;53557;52.164;5.604;2023-02-28T03:39:08;2.80;;;1.13;;
66653;SDS011;53557;52.164;5.604;2023-02-28T03:41:45;2.88;;;0.90;;
66653;SDS011;53557;52.164;5.604;2023-02-28T03:44:16;2.63;;;0.90;;
66653;SDS011;53557;52.164;5.604;2023-02-28T03:46:48;2.53;;;0.98;;
66653;SDS011;53557;52.164;5.604;2023-02-28T03:49:20;2.25;;;1.02;;
66653;SDS011;53557;52.164;5.604;2023-02-28T03:51:49;2.40;;;1.00;;
66653;SDS011;53557;52.164;5.604;2023-02-28T03:54:19;1.98;;;0.90;;
66653;SDS011;53557;52.164;5.604;2023-02-28T03:59:27;2.10;;;1.00;;
66653;SDS011;53557;52.164;5.604;2023-02-28T04:01:55;2.08;;;0.90;;
66653;SDS011;53557;52.164;5.604;2023-02-28T04:04:23;2.33;;;0.93;;
66653;SDS011;53557;52.164;5.604;2023-02-28T04:06:49;2.88;;;1.10;;
66653;SDS011;53557;52.164;5.604;2023-02-28T04:09:15;2.00;;;0.82;;
66653;SDS011;53557;52.164;5.604;2023-02-28T04:11:42;2.75;;;1.00;;
66653;SDS011;53557;52.164;5.604;2023-02-28T04:14:09;3.10;;;0.90;;
66653;SDS011;53557;52.164;5.604;2023-02-28T04:16:36;3.08;;;1.25;;
66653;SDS011;53557;52.164;5.604;2023-02-28T04:19:03;2.08;;;0.80;;
66653;SDS011;53557;52.164;5.604;2023-02-28T04:21:49;1.85;;;0.88;;
66653;SDS011;53557;52.164;5.604;2023-02-28T04:24:20;1.95;;;0.82;;
66653;SDS011;53557;52.164;5.604;2023-02-28T04:26:51;2.90;;;1.00;;
66653;SDS011;53557;52.164;5.604;2023-02-28T04:29:18;1.77;;;0.80;;
66653;SDS011;53557;52.164;5.604;2023-02-28T04:31:55;2.15;;;0.90;;
66653;SDS011;53557;52.164;5.604;2023-02-28T04:34:24;2.65;;;1.00;;
66653;SDS011;53557;52.164;5.604;2023-02-28T04:36:50;2.00;;;0.85;;
66653;SDS011;53557;52.164;5.604;2023-02-28T04:39:18;2.28;;;0.88;;
66653;SDS011;53557;52.164;5.604;2023-02-28T04:41:44;1.85;;;0.90;;
66653;SDS011;53557;52.164;5.604;2023-02-28T04:44:10;1.80;;;0.90;;
66653;SDS011;53557;52.164;5.604;2023-02-28T04:46:35;1.65;;;0.70;;
66653;SDS011;53557;52.164;5.604;2023-02-28T04:49:01;2.72;;;1.00;;
66653;SDS011;53557;52.164;5.604;2023-02-28T04:51:26;2.33;;;0.90;;
66653;SDS011;53557;52.164;5.604;2023-02-28T04:53:52;1.73;;;0.93;;
66653;SDS011;53557;52.164;5.604;2023-02-28T04:56:17;2.80;;;1.10;;
66653;SDS011;53557;52.164;5.604;2023-02-28T04:58:43;2.72;;;1.00;;
66653;SDS011;53557;52.164;5.604;2023-02-28T05:03:43;2.83;;;1.08;;
66653;SDS011;53557;52.164;5.604;2023-02-28T05:06:09;1.67;;;0.70;;
66653;SDS011;53557;52.164;5.604;2023-02-28T05:08:35;2.45;;;0.93;;
66653;SDS011;53557;52.164;5.604;2023-02-28T05:11:01;2.38;;;1.08;;
66653;SDS011;53557;52.164;5.604;2023-02-28T05:13:26;2.05;;;0.77;;
66653;SDS011;53557;52.164;5.604;2023-02-28T05:15:52;2.28;;;0.85;;
66653;SDS011;53557;52.164;5.604;2023-02-28T05:18:18;2.70;;;0.90;;
66653;SDS011;53557;52.164;5.604;2023-02-28T05:20:43;1.83;;;0.93;;
66653;SDS011;53557;52.164;5.604;2023-02-28T05:23:10;2.30;;;0.82;;
66653;SDS011;53557;52.164;5.604;2023-02-28T05:25:36;3.78;;;1.00;;
66653;SDS011;53557;52.164;5.604;2023-02-28T05:28:01;1.73;;;0.80;;
66653;SDS011;53557;52.164;5.604;2023-02-28T05:30:27;1.92;;;0.90;;
66653;SDS011;53557;52.164;5.604;2023-02-28T05:32:52;1.73;;;0.80;;
66653;SDS011;53557;52.164;5.604;2023-02-28T05:35:18;2.05;;;0.70;;
66653;SDS011;53557;52.164;5.604;2023-02-28T05:37:43;2.28;;;0.93;;
66653;SDS011;53557;52.164;5.604;2023-02-28T05:40:08;2.30;;;0.80;;
66653;SDS011;53557;52.164;5.604;2023-02-28T05:42:37;1.45;;;0.80;;
66653;SDS011;53557;52.164;5.604;2023-02-28T05:45:03;1.83;;;0.75;;
66653;SDS011;53557;52.164;5.604;2023-02-28T05:47:29;2.10;;;0.80;;
66653;SDS011;53557;52.164;5.604;2023-02-28T05:49:54;2.33;;;0.77;;
66653;SDS011;53557;52.164;5.604;2023-02-28T05:52:20;1.98;;;0.82;;
66653;SDS011;53557;52.164;5.604;2023-02-28T05:54:46;2.13;;;0.80;;
66653;SDS011;53557;52.164;5.604;2023-02-28T05:57:11;2.05;;;0.88;;
66653;SDS011;53557;52.164;5.604;2023-02-28T05:59:36;2.00;;;0.88;;
66653;SDS011;53557;52.164;5.604;2023-02-28T06:02:04;1.80;;;0.68;;
66653;SDS011;53557;52.164;5.604;2023-02-28T06:04:31;2.42;;;0.90;;
66653;SDS011;53557;52.164;5.604;2023-02-28T06:06:56;2.17;;;0.90;;
66653;SDS011;53557;52.164;5.604;2023-02-28T06:09:22;1.83;;;0.80;;
66653;SDS011;53557;52.164;5.604;2023-02-28T06:11:47;2.00;;;0.77;;
66653;SDS011;53557;52.164;5.604;2023-02-28T06:14:17;2.20;;;1.00;;
66653;SDS011;53557;52.164;5.604;2023-02-28T06:16:43;1.73;;;0.80;;
66653;SDS011;53557;52.164;5.604;2023-02-28T06:19:09;1.95;;;0.80;;
66653;SDS011;53557;52.164;5.604;2023-02-28T06:21:35;1.67;;;0.70;;
66653;SDS011;53557;52.164;5.604;2023-02-28T06:24:01;2.58;;;0.82;;
66653;SDS011;53557;52.164;5.604;2023-02-28T06:26:26;1.58;;;0.75;;
66653;SDS011;53557;52.164;5.604;2023-02-28T06:28:52;2.55;;;0.90;;
66653;SDS011;53557;52.164;5.604;2023-02-28T06:31:18;1.48;;;0.80;;
66653;SDS011;53557;52.164;5.604;2023-02-28T06:33:43;1.77;;;0.75;;
66653;SDS011;53557;52.164;5.604;2023-02-28T06:36:10;1.48;;;0.70;;
66653;SDS011;53557;52.164;5.604;2023-02-28T06:38:36;1.80;;;0.73;;
66653;SDS011;53557;52.164;5.604;2023-02-28T06:41:02;2.47;;;0.80;;
66653;SDS011;53557;52.164;5.604;2023-02-28T06:43:28;1.95;;;0.90;;
66653;SDS011;53557;52.164;5.604;2023-02-28T06:45:55;1.65;;;0.75;;
66653;SDS011;53557;52.164;5.604;2023-02-28T06:48:21;1.98;;;0.80;;
66653;SDS011;53557;52.164;5.604;2023-02-28T06:50:46;2.13;;;0.80;;
66653;SDS011;53557;52.164;5.604;2023-02-28T06:53:12;2.08;;;0.90;;
66653;SDS011;53557;52.164;5.604;2023-02-28T06:55:39;2.00;;;0.80;;
66653;SDS011;53557;52.164;5.604;2023-02-28T06:58:05;2.28;;;0.80;;
66653;SDS011;53557;52.164;5.604;2023-02-28T07:00:42;2.95;;;0.98;;
66653;SDS011;53557;52.164;5.604;2023-02-28T07:03:09;1.63;;;0.80;;
66653;SDS011;53557;52.164;5.604;2023-02-28T07:05:38;2.13;;;0.90;;
66653;SDS011;53557;52.164;5.604;2023-02-28T07:08:04;1.95;;;0.80;;
66653;SDS011;53557;52.164;5.604;2023-02-28T07:10:31;1.98;;;0.75;;
66653;SDS011;53557;52.164;5.604;2023-02-28T07:12:57;2.00;;;0.80;;
66653;SDS011;53557;52.164;5.604;2023-02-28T07:15:23;2.28;;;0.80;;
66653;SDS011;53557;52.164;5.604;2023-02-28T07:17:48;2.10;;;0.82;;
66653;SDS011;53557;52.164;5.604;2023-02-28T07:20:13;2.60;;;0.80;;
66653;SDS011;53557;52.164;5.604;2023-02-28T07:22:39;2.75;;;0.85;;
66653;SDS011;53557;52.164;5.604;2023-02-28T07:25:05;1.75;;;0.82;;
66653;SDS011;53557;52.164;5.604;2023-02-28T07:27:31;2.85;;;0.80;;
66653;SDS011;53557;52.164;5.604;2023-02-28T07:29:56;1.95;;;0.80;;
66653;SDS011;53557;52.164;5.604;2023-02-28T07:32:22;2.08;;;0.77;;
66653;SDS011;53557;52.164;5.604;2023-02-28T07:34:47;1.90;;;0.80;;
66653;SDS011;53557;52.164;5.604;2023-02-28T07:37:13;2.25;;;0.80;;
66653;SDS011;53557;52.164;5.604;2023-02-28T07:39:39;1.92;;;0.80;;
66653;SDS011;53557;52.164;5.604;2023-02-28T07:42:07;1.80;;;0.80;;
66653;SDS011;53557;52.164;5.604;2023-02-28T07:44:35;1.67;;;0.70;;
66653;SDS011;53557;52.164;5.604;2023-02-28T07:47:07;1.77;;;0.68;;
66653;SDS011;53557;52.164;5.604;2023-02-28T07:49:33;1.75;;;0.73;;
66653;SDS011;53557;52.164;5.604;2023-02-28T07:52:00;2.17;;;0.90;;
66653;SDS011;53557;52.164;5.604;2023-02-28T07:54:25;2.05;;;0.80;;
66653;SDS011;53557;52.164;5.604;2023-02-28T07:56:50;2.75;;;0.90;;
66653;SDS011;53557;52.164;5.604;2023-02-28T07:59:16;1.42;;;0.73;;
66653;SDS011;53557;52.164;5.604;2023-02-28T08:01:41;1.80;;;0.80;;
66653;SDS011;53557;52.164;5.604;2023-02-28T08:04:08;2.00;;;0.80;;
66653;SDS011;53557;52.164;5.604;2023-02-28T08:06:34;1.55;;;0.77;;
66653;SDS011;53557;52.164;5.604;2023-02-28T08:09:00;2.30;;;0.80;;
66653;SDS011;53557;52.164;5.604;2023-02-28T08:11:25;2.60;;;0.70;;
66653;SDS011;53557;52.164;5.604;2023-02-28T08:13:50;1.85;;;0.90;;
66653;SDS011;53557;52.164;5.604;2023-02-28T08:16:16;2.20;;;0.80;;
66653;SDS011;53557;52.164;5.604;2023-02-28T08:18:46;1.90;;;0.63;;
66653;SDS011;53557;52.164;5.604;2023-02-28T08:21:12;1.40;;;0.70;;
66653;SDS011;53557;52.164;5.604;2023-02-28T08:23:37;1.55;;;0.70;;
66653;SDS011;53557;52.164;5.604;2023-02-28T08:26:03;1.30;;;0.70;;
66653;SDS011;53557;52.164;5.604;2023-02-28T08:28:29;1.60;;;0.70;;
66653;SDS011;53557;52.164;5.604;2023-02-28T08:30:55;2.42;;;0.88;;
66653;SDS011;53557;52.164;5.604;2023-02-28T08:33:20;1.58;;;0.70;;
66653;SDS011;53557;52.164;5.604;2023-02-28T08:35:46;1.63;;;0.80;;
66653;SDS011;53557;52.164;5.604;2023-02-28T08:38:11;1.63;;;0.70;;
66653;SDS011;53557;52.164;5.604;2023-02-28T08:40:37;2.13;;;0.88;;
66653;SDS011;53557;52.164;5.604;2023-02-28T08:43:02;1.88;;;0.70;;
66653;SDS011;53557;52.164;5.604;2023-02-28T08:45:28;1.67;;;0.70;;
66653;SDS011;53557;52.164;5.604;2023-02-28T08:47:56;1.75;;;0.70;;
66653;SDS011;53557;52.164;5.604;2023-02-28T08:50:21;1.92;;;0.80;;
66653;SDS011;53557;52.164;5.604;2023-02-28T08:52:47;1.15;;;0.60;;
66653;SDS011;53557;52.164;5.604;2023-02-28T08:55:12;1.63;;;0.60;;
66653;SDS011;53557;52.164;5.604;2023-02-28T08:57:38;2.50;;;0.90;;
66653;SDS011;53557;52.164;5.604;2023-02-28T09:00:03;1.65;;;0.80;;
66653;SDS011;53557;52.164;5.604;2023-02-28T09:02:30;1.25;;;0.60;;
66653;SDS011;53557;52.164;5.604;2023-02-28T09:04:56;1.15;;;0.70;;
66653;SDS011;53557;52.164;5.604;2023-02-28T09:07:22;1.88;;;0.70;;
66653;SDS011;53557;52.164;5.604;2023-02-28T09:09:47;2.63;;;0.85;;
66653;SDS011;53557;52.164;5.604;2023-02-28T09:12:26;1.30;;;0.60;;
66653;SDS011;53557;52.164;5.604;2023-02-28T09:14:52;1.83;;;0.82;;
66653;SDS011;53557;52.164;5.604;2023-02-28T09:17:17;1.55;;;0.70;;
66653;SDS011;53557;52.164;5.604;2023-02-28T09:19:43;1.58;;;0.80;;
66653;SDS011;53557;52.164;5.604;2023-02-28T09:22:09;1.63;;;0.70;;
66653;SDS011;53557;52.164;5.604;2023-02-28T09:24:36;1.75;;;0.73;;
66653;SDS011;53557;52.164;5.604;2023-02-28T09:27:02;1.55;;;0.60;;
66653;SDS011;53557;52.164;5.604;2023-02-28T09:29:28;2.00;;;0.80;;
66653;SDS011;53557;52.164;5.604;2023-02-28T09:31:53;1.95;;;0.65;;
66653;SDS011;53557;52.164;5.604;2023-02-28T09:34:18;1.83;;;0.70;;
66653;SDS011;53557;52.164;5.604;2023-02-28T09:36:44;1.98;;;0.70;;
66653;SDS011;53557;52.164;5.604;2023-02-28T09:39:10;1.27;;;0.70;;
66653;SDS011;53557;52.164;5.604;2023-02-28T09:41:38;2.20;;;0.60;;
66653;SDS011;53557;52.164;5.604;2023-02-28T09:44:36;2.28;;;0.73;;
66653;SDS011;53557;52.164;5.604;2023-02-28T09:47:17;1.70;;;0.70;;
66653;SDS011;53557;52.164;5.604;2023-02-28T09:49:45;1.90;;;0.80;;
66653;SDS011;53557;52.164;5.604;2023-02-28T09:52:17;1.20;;;0.60;;
66653;SDS011;53557;52.164;5.604;2023-02-28T09:54:45;1.23;;;0.70;;
66653;SDS011;53557;52.164;5.604;2023-02-28T10:02:41;1.50;;;0.70;;
66653;SDS011;53557;52.164;5.604;2023-02-28T10:05:19;1.25;;;0.60;;
66653;SDS011;53557;52.164;5.604;2023-02-28T10:12:49;2.00;;;0.77;;
66653;SDS011;53557;52.164;5.604;2023-02-28T10:15:17;1.50;;;0.70;;
66653;SDS011;53557;52.164;5.604;2023-02-28T10:17:45;1.02;;;0.50;;
66653;SDS011;53557;52.164;5.604;2023-02-28T10:20:14;1.83;;;0.77;;
66653;SDS011;53557;52.164;5.604;2023-02-28T10:22:57;1.33;;;0.57;;
66653;SDS011;53557;52.164;5.604;2023-02-28T10:25:32;2.10;;;0.60;;
66653;SDS011;53557;52.164;5.604;2023-02-28T10:28:05;1.60;;;0.60;;
66653;SDS011;53557;52.164;5.604;2023-02-28T10:30:36;1.40;;;0.70;;
66653;SDS011;53557;52.164;5.604;2023-02-28T10:33:04;2.03;;;0.60;;
66653;SDS011;53557;52.164;5.604;2023-02-28T10:35:29;1.95;;;0.73;;
66653;SDS011;53557;52.164;5.604;2023-02-28T10:37:56;2.22;;;0.60;;
66653;SDS011;53557;52.164;5.604;2023-02-28T10:45:25;1.30;;;0.60;;
66653;SDS011;53557;52.164;5.604;2023-02-28T10:47:55;1.77;;;0.55;;
66653;SDS011;53557;52.164;5.604;2023-02-28T10:50:53;1.25;;;0.60;;
66653;SDS011;53557;52.164;5.604;2023-02-28T11:02:00;1.63;;;0.77;;
66653;SDS011;53557;52.164;5.604;2023-02-28T11:06:44;1.15;;;0.60;;
66653;SDS011;53557;52.164;5.604;2023-02-28T11:09:30;1.25;;;0.50;;
66653;SDS011;53557;52.164;5.604;2023-02-28T11:11:56;1.27;;;0.60;;
66653;SDS011;53557;52.164;5.604;2023-02-28T11:14:23;1.70;;;0.70;;
66653;SDS011;53557;52.164;5.604;2023-02-28T11:16:55;1.13;;;0.60;;
66653;SDS011;53557;52.164;5.604;2023-02-28T11:19:38;1.33;;;0.60;;
66653;SDS011;53557;52.164;5.604;2023-02-28T11:22:05;1.35;;;0.65;;
66653;SDS011;53557;52.164;5.604;2023-02-28T11:24:32;2.63;;;0.60;;
66653;SDS011;53557;52.164;5.604;2023-02-28T11:26:59;1.35;;;0.60;;
66653;SDS011;53557;52.164;5.604;2023-02-28T11:29:26;1.17;;;0.50;;
66653;SDS011;53557;52.164;5.604;2023-02-28T11:34:37;1.63;;;0.60;;
66653;SDS011;53557;52.164;5.604;2023-02-28T11:37:03;1.67;;;0.70;;
66653;SDS011;53557;52.164;5.604;2023-02-28T11:39:30;1.00;;;0.55;;
66653;SDS011;53557;52.164;5.604;2023-02-28T11:47:06;1.35;;;0.70;;
66653;SDS011;53557;52.164;5.604;2023-02-28T11:49:50;1.33;;;0.70;;
66653;SDS011;53557;52.164;5.604;2023-02-28T11:52:35;1.00;;;0.50;;
66653;SDS011;53557;52.164;5.604;2023-02-28T11:55:35;1.67;;;0.60;;
66653;SDS011;53557;52.164;5.604;2023-02-28T12:09:17;1.13;;;0.63;;
66653;SDS011;53557;52.164;5.604;2023-02-28T12:12:18;1.30;;;0.60;;
66653;SDS011;53557;52.164;5.604;2023-02-28T12:17:45;1.40;;;0.60;;
66653;SDS011;53557;52.164;5.604;2023-02-28T12:23:06;1.05;;;0.52;;
66653;SDS011;53557;52.164;5.604;2023-02-28T12:28:25;0.90;;;0.40;;
66653;SDS011;53557;52.164;5.604;2023-02-28T12:30:58;0.98;;;0.60;;
66653;SDS011;53557;52.164;5.604;2023-02-28T12:33:28;1.38;;;0.65;;
66653;SDS011;53557;52.164;5.604;2023-02-28T12:35:59;1.80;;;0.70;;
66653;SDS011;53557;52.164;5.604;2023-02-28T12:38:27;0.93;;;0.50;;
66653;SDS011;53557;52.164;5.604;2023-02-28T12:41:02;2.47;;;0.50;;
66653;SDS011;53557;52.164;5.604;2023-02-28T12:43:33;1.05;;;0.52;;
66653;SDS011;53557;52.164;5.604;2023-02-28T12:46:10;1.20;;;0.57;;
66653;SDS011;53557;52.164;5.604;2023-02-28T12:48:41;1.75;;;0.70;;
66653;SDS011;53557;52.164;5.604;2023-02-28T12:51:07;0.90;;;0.43;;
66653;SDS011;53557;52.164;5.604;2023-02-28T12:56:24;1.17;;;0.60;;
66653;SDS011;53557;52.164;5.604;2023-02-28T12:58:58;0.93;;;0.50;;
66653;SDS011;53557;52.164;5.604;2023-02-28T13:01:37;1.55;;;0.70;;
66653;SDS011;53557;52.164;5.604;2023-02-28T13:04:14;0.80;;;0.50;;
66653;SDS011;53557;52.164;5.604;2023-02-28T13:07:11;1.35;;;0.55;;
66653;SDS011;53557;52.164;5.604;2023-02-28T13:09:57;1.17;;;0.43;;
66653;SDS011;53557;52.164;5.604;2023-02-28T13:12:25;1.00;;;0.47;;
66653;SDS011;53557;52.164;5.604;2023-02-28T13:14:51;1.30;;;0.50;;
66653;SDS011;53557;52.164;5.604;2023-02-28T13:17:54;2.15;;;0.57;;
66653;SDS011;53557;52.164;5.604;2023-02-28T13:22:58;1.00;;;0.50;;
66653;SDS011;53557;52.164;5.604;2023-02-28T13:28:10;2.83;;;0.70;;
66653;SDS011;53557;52.164;5.604;2023-02-28T13:33:22;1.23;;;0.52;;
66653;SDS011;53557;52.164;5.604;2023-02-28T13:38:34;1.30;;;0.50;;
66653;SDS011;53557;52.164;5.604;2023-02-28T13:51:55;1.50;;;0.55;;
66653;SDS011;53557;52.164;5.604;2023-02-28T14:00:15;1.48;;;0.63;;
66653;SDS011;53557;52.164;5.604;2023-02-28T14:02:52;1.40;;;0.70;;
66653;SDS011;53557;52.164;5.604;2023-02-28T14:05:31;0.88;;;0.50;;
66653;SDS011;53557;52.164;5.604;2023-02-28T14:07:58;1.50;;;0.60;;
66653;SDS011;53557;52.164;5.604;2023-02-28T14:10:32;1.23;;;0.60;;
66653;SDS011;53557;52.164;5.604;2023-02-28T14:13:01;1.23;;;0.57;;
66653;SDS011;53557;52.164;5.604;2023-02-28T14:18:17;1.05;;;0.50;;
66653;SDS011;53557;52.164;5.604;2023-02-28T14:20:47;1.00;;;0.50;;
66653;SDS011;53557;52.164;5.604;2023-02-28T14:23:19;1.10;;;0.60;;
66653;SDS011;53557;52.164;5.604;2023-02-28T14:25:59;1.38;;;0.52;;
66653;SDS011;53557;52.164;5.604;2023-02-28T14:34:26;0.95;;;0.50;;
66653;SDS011;53557;52.164;5.604;2023-02-28T14:36:57;1.45;;;0.50;;
66653;SDS011;53557;52.164;5.604;2023-02-28T14:39:24;1.17;;;0.60;;
66653;SDS011;53557;52.164;5.604;2023-02-28T14:41:51;1.30;;;0.50;;
66653;SDS011;53557;52.164;5.604;2023-02-28T14:44:23;1.00;;;0.60;;
66653;SDS011;53557;52.164;5.604;2023-02-28T14:46:52;2.13;;;0.70;;
66653;SDS011;53557;52.164;5.604;2023-02-28T14:49:21;1.70;;;0.50;;
66653;SDS011;53557;52.164;5.604;2023-02-28T14:52:17;1.20;;;0.60;;
66653;SDS011;53557;52.164;5.604;2023-02-28T14:54:44;1.73;;;0.60;;
66653;SDS011;53557;52.164;5.604;2023-02-28T14:57:21;1.27;;;0.60;;
66653;SDS011;53557;52.164;5.604;2023-02-28T15:00:00;0.85;;;0.50;;
66653;SDS011;53557;52.164;5.604;2023-02-28T15:02:37;0.60;;;0.40;;
66653;SDS011;53557;52.164;5.604;2023-02-28T15:07:38;1.85;;;0.60;;
66653;SDS011;53557;52.164;5.604;2023-02-28T15:12:39;1.17;;;0.60;;
66653;SDS011;53557;52.164;5.604;2023-02-28T15:15:05;1.30;;;0.50;;
66653;SDS011;53557;52.164;5.604;2023-02-28T15:17:32;1.55;;;0.60;;
66653;SDS011;53557;52.164;5.604;2023-02-28T15:19:58;1.08;;;0.50;;
66653;SDS011;53557;52.164;5.604;2023-02-28T15:22:27;1.33;;;0.50;;
66653;SDS011;53557;52.164;5.604;2023-02-28T15:24:54;1.92;;;0.47;;
66653;SDS011;53557;52.164;5.604;2023-02-28T15:27:25;1.05;;;0.52;;
66653;SDS011;53557;52.164;5.604;2023-02-28T15:29:57;1.27;;;0.50;;
66653;SDS011;53557;52.164;5.604;2023-02-28T15:34:51;1.60;;;0.60;;
66653;SDS011;53557;52.164;5.604;2023-02-28T15:37:33;1.10;;;0.50;;
66653;SDS011;53557;52.164;5.604;2023-02-28T15:40:15;1.17;;;0.50;;
66653;SDS011;53557;52.164;5.604;2023-02-28T15:42:43;1.02;;;0.50;;
66653;SDS011;53557;52.164;5.604;2023-02-28T15:45:32;2.17;;;0.50;;
66653;SDS011;53557;52.164;5.604;2023-02-28T15:48:04;1.15;;;0.63;;
66653;SDS011;53557;52.164;5.604;2023-02-28T15:50:30;1.05;;;0.50;;
66653;SDS011;53557;52.164;5.604;2023-02-28T15:52:55;1.23;;;0.50;;
66653;SDS011;53557;52.164;5.604;2023-02-28T15:55:22;0.80;;;0.50;;
66653;SDS011;53557;52.164;5.604;2023-02-28T15:57:53;0.75;;;0.40;;
66653;SDS011;53557;52.164;5.604;2023-02-28T16:00:21;0.98;;;0.50;;
66653;SDS011;53557;52.164;5.604;2023-02-28T16:02:48;1.10;;;0.60;;
66653;SDS011;53557;52.164;5.604;2023-02-28T16:05:21;1.73;;;0.70;;
66653;SDS011;53557;52.164;5.604;2023-02-28T16:07:55;1.75;;;0.55;;
66653;SDS011;53557;52.164;5.604;2023-02-28T16:10:22;1.10;;;0.50;;
66653;SDS011;53557;52.164;5.604;2023-02-28T16:12:52;1.60;;;0.60;;
66653;SDS011;53557;52.164;5.604;2023-02-28T16:15:22;0.90;;;0.50;;
66653;SDS011;53557;52.164;5.604;2023-02-28T16:17:50;0.77;;;0.50;;
66653;SDS011;53557;52.164;5.604;2023-02-28T16:20:21;1.77;;;0.60;;
66653;SDS011;53557;52.164;5.604;2023-02-28T16:22:49;1.75;;;0.50;;
66653;SDS011;53557;52.164;5.604;2023-02-28T16:25:16;1.30;;;0.70;;
66653;SDS011;53557;52.164;5.604;2023-02-28T16:27:43;1.15;;;0.50;;
66653;SDS011;53557;52.164;5.604;2023-02-28T16:30:15;1.58;;;0.50;;
66653;SDS011;53557;52.164;5.604;2023-02-28T16:32:45;0.98;;;0.50;;
66653;SDS011;53557;52.164;5.604;2023-02-28T16:35:10;1.02;;;0.50;;
66653;SDS011;53557;52.164;5.604;2023-02-28T16:37:36;0.88;;;0.50;;
66653;SDS011;53557;52.164;5.604;2023-02-28T16:40:02;0.80;;;0.40;;
66653;SDS011;53557;52.164;5.604;2023-02-28T16:42:28;1.40;;;0.65;;
66653;SDS011;53557;52.164;5.604;2023-02-28T16:44:54;1.95;;;0.60;;
66653;SDS011;53557;52.164;5.604;2023-02-28T16:47:20;0.90;;;0.50;;
66653;SDS011;53557;52.164;5.604;2023-02-28T16:49:46;1.92;;;0.68;;
66653;SDS011;53557;52.164;5.604;2023-02-28T16:52:12;1.02;;;0.50;;
66653;SDS011;53557;52.164;5.604;2023-02-28T16:54:38;1.23;;;0.57;;
66653;SDS011;53557;52.164;5.604;2023-02-28T16:57:04;1.70;;;0.60;;
66653;SDS011;53557;52.164;5.604;2023-02-28T16:59:30;1.55;;;0.50;;
66653;SDS011;53557;52.164;5.604;2023-02-28T17:01:56;1.50;;;0.70;;
66653;SDS011;53557;52.164;5.604;2023-02-28T17:04:24;1.05;;;0.50;;
66653;SDS011;53557;52.164;5.604;2023-02-28T17:06:50;1.55;;;0.60;;
66653;SDS011;53557;52.164;5.604;2023-02-28T17:09:20;1.00;;;0.52;;
66653;SDS011;53557;52.164;5.604;2023-02-28T17:11:46;0.70;;;0.40;;
66653;SDS011;53557;52.164;5.604;2023-02-28T17:14:12;1.73;;;0.73;;
66653;SDS011;53557;52.164;5.604;2023-02-28T17:16:38;1.30;;;0.55;;
66653;SDS011;53557;52.164;5.604;2023-02-28T17:19:14;1.48;;;0.60;;